Airfield :







YOU CAN JOIN US ON...

 
LOGIN :

Register | Disclaimer

   EN    FR    IT 

 









Legend :    VFR   Marginal VFR   IFR   Intensive IFR   Very Intensive IFR
Visi :
Ceiling :
>= 8 km
>= 3000ft
5 to 8 km
1000 to 3000 ft
1500m to 5 km
500 to 1000 ft
800 to 1500m
200 to 500 ft
< 800m
< 200 ft
Symbols :   Thunderstorms  Fog  Heavy snow  Heavy precipitations  Wind > 20 kt






- Airport Elevation : 39 ft
- IATA code : YNA


CYNA - Natashquan

CURRENT METAR :
  • 151115Z AUTO 08020G25KT 7SM -RA OVC012 02/01 A2908 RMK PRESFR SLP851

EXPIRED METARs :
  • 151100Z AUTO 08017G23KT 7SM -RA OVC012 02/01 A2910 RMK SLP857
  • 151043Z AUTO 08019G27KT 3SM -RA BR OVC012 01/01 A2911 RMK PRESFR SLP858
  • 151000Z AUTO 08020G28KT 3SM -RA BR OVC010 01/01 A2915 RMK PRESFR SLP872
  • 150952Z AUTO 08019G25KT 3SM -RA BR OVC010 01/01 A2916 RMK PRESFR SLP876
  • 150933Z AUTO 08019G26KT 4SM BR OVC014 01/01 A2917 RMK SLP882
  • 150923Z AUTO 08021G29KT 5SM -RA BR OVC014 01/01 A2918 RMK PRESFR SLP883
  • 150904Z AUTO 08019G26KT 9SM OVC016 01/01 A2920 RMK PRESFR SLP891
  • 150855Z AUTO 08019G26KT 6SM -RA BR OVC016 01/01 A2921 RMK PRESFR SLP893

TAF TAF CYNA
Valid from the 15 at 08:00 until the 15 at 20:00 UTC


150738Z 1508/1520 10025G40KT 1SM -RA BR OVC003
TEMPO 1508/1516 6SM -RA BR OVC010
BECMG 1512/1514 18017G27KT
FM151600 17017G27KT 5SM -DZ BR OVC007
TEMPO 1516/1520 6SM BR OVC010
BECMG 1516/1518 20020G40KT RMK FCST BASED ON AUTO OBS. NXT FCST BY 151400Z



MET'MAP, your aeronautical weather chart ! - Copyright ORBIFLY December 2007 - Disclaimer

ORBIFLY MET'MAP TEAM :

Programming & Development : Alexandra Zaïnal
Concept & original design : Baudouin d'Aumeries
Assistance for programming : Marc-Olivier Méhu
Technical & hardware support : Manuel Goepfert

Contact : metmap@orbifly.com




SOURCES & CREDITS :

   NOAA